createdAt,value
2022-09-21T00:01:13.987Z,4.82
2022-09-21T00:03:42.161Z,4.93
2022-09-21T00:06:12.553Z,4.82
2022-09-21T00:08:39.633Z,4.80
2022-09-21T00:11:06.740Z,5.03
2022-09-21T00:13:34.419Z,4.88
2022-09-21T00:16:01.556Z,4.40
2022-09-21T00:18:28.405Z,5.00
2022-09-21T00:20:55.238Z,4.70
2022-09-21T00:23:22.195Z,5.07
2022-09-21T00:25:48.939Z,4.82
2022-09-21T00:28:16.077Z,4.63
2022-09-21T00:30:42.951Z,5.00
2022-09-21T00:33:09.718Z,4.70
2022-09-21T00:35:36.594Z,4.60
2022-09-21T00:38:04.101Z,4.80
2022-09-21T00:40:32.353Z,4.97
2022-09-21T00:43:13.086Z,5.22
2022-09-21T00:45:40.093Z,5.30
2022-09-21T00:48:07.052Z,5.07
2022-09-21T00:50:35.345Z,4.93
2022-09-21T00:53:04.689Z,5.17
2022-09-21T00:55:37.640Z,4.93
2022-09-21T00:58:13.711Z,4.97
2022-09-21T01:00:40.994Z,4.80
2022-09-21T01:03:09.934Z,4.88
2022-09-21T01:05:36.799Z,4.67
2022-09-21T01:08:06.898Z,5.70
2022-09-21T01:11:11.658Z,5.80
2022-09-21T01:14:02.756Z,5.10
2022-09-21T01:16:44.080Z,5.65
2022-09-21T01:19:40.551Z,5.13
2022-09-21T01:22:31.859Z,5.32
2022-09-21T01:25:01.795Z,5.38
2022-09-21T01:27:45.415Z,5.22
2022-09-21T01:30:19.428Z,5.63
2022-09-21T01:32:56.833Z,5.30
2022-09-21T01:35:30.210Z,4.95
2022-09-21T01:37:59.388Z,5.00
2022-09-21T01:40:35.373Z,5.20
2022-09-21T01:43:05.233Z,5.07
2022-09-21T01:45:44.343Z,5.73
2022-09-21T01:48:13.367Z,5.35
2022-09-21T01:50:49.930Z,5.78
2022-09-21T01:53:19.299Z,5.40
2022-09-21T01:55:51.881Z,5.93
2022-09-21T01:58:29.148Z,5.37
2022-09-21T02:00:57.579Z,5.75
2022-09-21T02:03:38.929Z,5.43
2022-09-21T02:06:07.155Z,5.35
2022-09-21T02:08:34.794Z,5.60
2022-09-21T02:11:03.031Z,5.43
2022-09-21T02:13:36.847Z,5.18
2022-09-21T02:16:09.611Z,5.20
2022-09-21T02:18:58.390Z,4.90
2022-09-21T02:21:35.119Z,4.97
2022-09-21T02:24:32.615Z,4.67
2022-09-21T02:27:34.617Z,4.63
2022-09-21T02:30:10.187Z,4.60
2022-09-21T02:33:07.740Z,4.93
2022-09-21T02:35:51.329Z,4.78
2022-09-21T02:38:28.891Z,4.87
2022-09-21T02:41:09.279Z,4.93
2022-09-21T02:43:51.025Z,4.78
2022-09-21T02:46:42.747Z,4.88
2022-09-21T02:49:23.447Z,4.95
2022-09-21T02:51:54.416Z,4.87
2022-09-21T02:54:25.524Z,5.30
2022-09-21T02:56:54.729Z,4.63
2022-09-21T02:59:22.318Z,4.95
2022-09-21T03:01:49.771Z,5.40
2022-09-21T03:04:17.625Z,5.03
2022-09-21T03:06:44.394Z,5.20
2022-09-21T03:09:11.214Z,5.03
2022-09-21T03:11:38.137Z,4.60
2022-09-21T03:14:05.433Z,4.72
2022-09-21T03:16:32.265Z,4.83
2022-09-21T03:18:59.082Z,4.80
2022-09-21T03:21:25.946Z,4.90
2022-09-21T03:23:52.883Z,4.57
2022-09-21T03:26:19.700Z,4.75
2022-09-21T03:28:46.443Z,4.47
2022-09-21T03:31:13.221Z,4.28
2022-09-21T03:33:46.835Z,4.35
2022-09-21T03:36:14.018Z,4.35
2022-09-21T03:38:40.786Z,4.30
2022-09-21T03:41:07.648Z,4.57
2022-09-21T03:43:34.469Z,4.28
2022-09-21T03:46:01.422Z,4.75
2022-09-21T03:48:28.286Z,4.35
2022-09-21T03:50:55.016Z,5.30
2022-09-21T03:53:21.749Z,4.97
2022-09-21T03:55:48.571Z,5.03
2022-09-21T03:58:15.452Z,5.22
2022-09-21T04:00:42.228Z,4.63
2022-09-21T04:03:09.225Z,4.65
2022-09-21T04:05:36.090Z,4.90
2022-09-21T04:08:02.910Z,5.10
2022-09-21T04:10:29.884Z,4.53
2022-09-21T04:13:01.379Z,4.55
2022-09-21T04:15:29.043Z,4.78
2022-09-21T04:17:55.927Z,4.30
2022-09-21T04:20:23.256Z,4.78
2022-09-21T04:22:51.178Z,4.30
2022-09-21T04:25:18.237Z,4.22
2022-09-21T04:27:45.099Z,4.22
2022-09-21T04:30:16.701Z,4.30
2022-09-21T04:32:43.938Z,4.32
2022-09-21T04:35:11.090Z,4.38
2022-09-21T04:37:40.435Z,4.30
2022-09-21T04:40:08.179Z,4.10
2022-09-21T04:42:35.020Z,4.10
2022-09-21T04:45:03.831Z,4.13
2022-09-21T04:47:31.462Z,4.00
2022-09-21T04:49:58.402Z,3.90
2022-09-21T04:52:27.612Z,4.20
2022-09-21T04:54:54.407Z,3.87
2022-09-21T04:57:21.312Z,4.13
2022-09-21T04:59:49.190Z,4.35
2022-09-21T05:02:16.061Z,4.22
2022-09-21T05:04:43.967Z,4.03
2022-09-21T05:07:13.171Z,4.27
2022-09-21T05:09:42.855Z,3.90
2022-09-21T05:12:09.609Z,4.30
2022-09-21T05:14:36.379Z,4.30
2022-09-21T05:17:03.213Z,4.05
2022-09-21T05:19:29.915Z,4.00
2022-09-21T05:21:56.611Z,4.00
2022-09-21T05:24:23.464Z,4.10
2022-09-21T05:26:50.227Z,4.28
2022-09-21T05:29:17.262Z,3.80
2022-09-21T05:31:51.395Z,4.10
2022-09-21T05:34:51.988Z,3.90
2022-09-21T05:37:57.147Z,4.30
2022-09-21T05:40:24.394Z,3.67
2022-09-21T05:42:51.649Z,4.00
2022-09-21T05:45:20.055Z,3.70
2022-09-21T05:48:16.792Z,3.80
2022-09-21T05:50:52.439Z,3.53
2022-09-21T05:53:37.398Z,3.67
2022-09-21T05:56:25.516Z,3.85
2022-09-21T05:59:04.854Z,3.63
2022-09-21T06:01:34.676Z,3.90
2022-09-21T06:04:03.219Z,3.58
2022-09-21T06:06:30.217Z,3.65
2022-09-21T06:08:57.038Z,3.90
2022-09-21T06:11:23.833Z,3.63
2022-09-21T06:13:50.554Z,3.50
2022-09-21T06:16:17.466Z,3.80
2022-09-21T06:18:44.210Z,3.90
2022-09-21T06:21:10.989Z,3.70
2022-09-21T06:23:37.809Z,3.57
2022-09-21T06:26:05.171Z,3.42
2022-09-21T06:28:32.132Z,4.00
2022-09-21T06:30:59.155Z,4.43
2022-09-21T06:33:26.163Z,4.47
2022-09-21T06:35:52.835Z,3.63
2022-09-21T06:38:19.676Z,4.18
2022-09-21T06:40:46.501Z,3.47
2022-09-21T06:43:13.468Z,3.50
2022-09-21T06:45:40.534Z,3.53
2022-09-21T06:48:07.460Z,7.27
2022-09-21T06:50:34.779Z,3.45
2022-09-21T06:53:02.233Z,3.20
2022-09-21T06:55:32.418Z,3.13
2022-09-21T06:58:03.191Z,5.68
2022-09-21T07:00:31.070Z,4.30
2022-09-21T07:02:57.955Z,3.53
2022-09-21T07:05:25.582Z,3.20
2022-09-21T07:07:58.554Z,3.22
2022-09-21T07:10:26.115Z,3.03
2022-09-21T07:12:52.904Z,7.40
2022-09-21T07:15:20.062Z,3.67
2022-09-21T07:17:51.710Z,3.30
2022-09-21T07:20:18.791Z,3.38
2022-09-21T07:22:45.545Z,3.50
2022-09-21T07:25:12.417Z,3.40
2022-09-21T07:27:39.413Z,4.60
2022-09-21T07:30:07.503Z,3.40
2022-09-21T07:32:35.106Z,2.85
2022-09-21T07:35:02.142Z,3.40
2022-09-21T07:37:31.721Z,3.23
2022-09-21T07:39:58.698Z,3.20
2022-09-21T07:42:25.533Z,3.50
2022-09-21T07:45:03.389Z,3.38
2022-09-21T07:47:31.339Z,3.60
2022-09-21T07:49:58.087Z,3.50
2022-09-21T07:52:24.900Z,4.68
2022-09-21T07:54:51.668Z,3.40
2022-09-21T07:57:18.508Z,3.38
2022-09-21T07:59:46.161Z,3.10
2022-09-21T08:02:13.166Z,3.30
2022-09-21T08:04:40.213Z,4.88
2022-09-21T08:07:06.961Z,4.03
2022-09-21T08:09:33.749Z,3.10
2022-09-21T08:12:00.537Z,3.30
2022-09-21T08:14:27.279Z,5.17
2022-09-21T08:16:54.158Z,3.63
2022-09-21T08:19:20.932Z,3.00
2022-09-21T08:21:53.637Z,3.40
2022-09-21T08:24:23.834Z,3.70
2022-09-21T08:26:50.570Z,4.40
2022-09-21T08:29:17.420Z,3.20
2022-09-21T08:31:44.241Z,3.58
2022-09-21T08:34:10.995Z,3.40
2022-09-21T08:36:37.822Z,3.38
2022-09-21T08:39:07.471Z,3.20
2022-09-21T08:42:09.333Z,3.83
2022-09-21T08:44:50.289Z,4.05
2022-09-21T08:47:30.444Z,4.13
2022-09-21T08:50:00.244Z,3.47
2022-09-21T08:52:27.012Z,3.50
2022-09-21T08:54:55.870Z,3.50
2022-09-21T08:57:27.351Z,3.20
2022-09-21T08:59:54.093Z,3.92
2022-09-21T09:02:26.864Z,3.78
2022-09-21T09:05:20.821Z,3.30
2022-09-21T09:08:13.347Z,3.20
2022-09-21T09:10:48.832Z,3.92
2022-09-21T09:13:18.625Z,3.60
2022-09-21T09:15:45.348Z,3.20
2022-09-21T09:18:30.435Z,3.83
2022-09-21T09:21:06.749Z,3.60
2022-09-21T09:23:46.781Z,3.67
2022-09-21T09:26:30.244Z,3.60
2022-09-21T09:29:34.503Z,3.63
2022-09-21T09:32:02.316Z,3.50
2022-09-21T09:34:32.223Z,3.80
2022-09-21T09:37:06.007Z,3.50
2022-09-21T09:39:32.762Z,3.72
2022-09-21T09:41:59.440Z,3.58
2022-09-21T09:44:26.142Z,3.80
2022-09-21T09:47:11.765Z,3.63
2022-09-21T09:49:38.678Z,3.50
2022-09-21T09:52:07.854Z,7.20
2022-09-21T09:54:35.883Z,3.90
2022-09-21T09:57:04.606Z,3.53
2022-09-21T09:59:43.727Z,5.43
2022-09-21T10:02:19.591Z,4.00
2022-09-21T10:05:00.986Z,4.07
2022-09-21T10:07:37.515Z,3.60
2022-09-21T10:10:21.800Z,5.33
2022-09-21T10:12:50.409Z,4.60
2022-09-21T10:15:18.326Z,3.25
2022-09-21T10:17:48.978Z,9.02
2022-09-21T10:20:19.014Z,4.20
2022-09-21T10:22:53.531Z,4.00
2022-09-21T10:25:21.408Z,4.30
2022-09-21T10:27:51.051Z,4.15
2022-09-21T10:30:38.255Z,4.85
2022-09-21T10:33:19.322Z,5.78
2022-09-21T10:35:51.503Z,4.20
2022-09-21T10:38:22.646Z,4.93
2022-09-21T10:40:50.580Z,5.32
2022-09-21T10:43:24.120Z,4.15
2022-09-21T10:45:56.837Z,4.50
2022-09-21T10:48:26.167Z,3.70
2022-09-21T10:50:55.031Z,3.75
2022-09-21T10:53:28.622Z,4.75
2022-09-21T10:56:21.588Z,4.43
2022-09-21T10:59:11.733Z,4.55
2022-09-21T11:01:45.170Z,4.30
2022-09-21T11:04:34.788Z,4.18
2022-09-21T11:07:12.394Z,5.97
2022-09-21T11:09:51.204Z,5.10
2022-09-21T11:12:26.751Z,5.18
2022-09-21T11:15:15.846Z,3.97
2022-09-21T11:17:50.221Z,4.32
2022-09-21T11:20:42.185Z,4.30
2022-09-21T11:23:25.198Z,3.40
2022-09-21T11:26:05.993Z,4.45
2022-09-21T11:29:11.516Z,4.20
2022-09-21T11:32:02.551Z,4.10
2022-09-21T11:34:57.939Z,4.00
2022-09-21T11:37:51.518Z,4.32
2022-09-21T11:40:44.698Z,4.63
2022-09-21T11:43:22.710Z,4.90
2022-09-21T11:46:00.468Z,3.63
2022-09-21T11:48:49.131Z,4.00
2022-09-21T11:51:38.068Z,3.90
2022-09-21T11:54:33.037Z,13.63
2022-09-21T11:57:26.962Z,4.17
2022-09-21T12:00:02.897Z,4.13
2022-09-21T12:02:44.819Z,4.07
2022-09-21T12:05:14.517Z,3.70
2022-09-21T12:08:24.722Z,5.20
2022-09-21T12:11:34.903Z,4.07
2022-09-21T12:14:08.724Z,5.63
2022-09-21T12:16:48.644Z,5.60
2022-09-21T12:19:21.027Z,5.30
2022-09-21T12:21:51.284Z,5.07
2022-09-21T12:24:22.088Z,4.00
2022-09-21T12:27:11.630Z,4.20
2022-09-21T12:29:47.729Z,4.20
2022-09-21T12:32:49.574Z,3.88
2022-09-21T12:35:23.156Z,3.85
2022-09-21T12:38:00.776Z,4.23
2022-09-21T12:40:41.394Z,4.88
2022-09-21T12:43:34.264Z,5.13
2022-09-21T12:46:14.499Z,4.50
2022-09-21T12:48:41.406Z,6.57
2022-09-21T12:51:30.634Z,4.40
2022-09-21T12:54:01.864Z,5.35
2022-09-21T12:56:45.366Z,3.90
2022-09-21T12:59:38.112Z,4.25
2022-09-21T13:02:21.865Z,4.10
2022-09-21T13:05:31.176Z,4.63
2022-09-21T13:08:11.781Z,3.67
2022-09-21T13:10:43.375Z,4.50
2022-09-21T13:13:36.495Z,4.20
2022-09-21T13:16:07.939Z,3.95
2022-09-21T13:18:38.070Z,3.80
2022-09-21T13:21:24.178Z,4.00
2022-09-21T13:24:05.599Z,4.40
2022-09-21T13:26:44.683Z,4.07
2022-09-21T13:29:14.271Z,5.03
2022-09-21T13:32:02.174Z,3.97
2022-09-21T13:34:39.509Z,4.10
2022-09-21T13:37:12.100Z,3.85
2022-09-21T13:40:01.960Z,4.82
2022-09-21T13:42:34.757Z,4.00
2022-09-21T13:45:02.726Z,4.90
2022-09-21T13:47:32.638Z,4.55
2022-09-21T13:50:02.983Z,4.32
2022-09-21T13:52:39.543Z,5.38
2022-09-21T13:55:17.884Z,4.22
2022-09-21T13:57:51.547Z,3.77
2022-09-21T14:00:18.286Z,4.80
2022-09-21T14:02:57.801Z,4.40
2022-09-21T14:05:40.129Z,4.07
2022-09-21T14:08:17.551Z,4.10
2022-09-21T14:11:03.838Z,4.20
2022-09-21T14:13:43.076Z,4.05
2022-09-21T14:16:31.525Z,4.03
2022-09-21T14:18:58.475Z,4.05
2022-09-21T14:21:25.407Z,4.03
2022-09-21T14:24:07.615Z,4.40
2022-09-21T14:26:41.458Z,4.35
2022-09-21T14:29:47.830Z,4.10
2022-09-21T14:32:21.122Z,3.95
2022-09-21T14:34:52.439Z,4.13
2022-09-21T14:37:55.384Z,4.33
2022-09-21T14:40:29.108Z,4.10
2022-09-21T14:42:59.501Z,3.83
2022-09-21T14:45:41.575Z,4.00
2022-09-21T14:48:30.245Z,4.47
2022-09-21T14:51:12.326Z,4.53
2022-09-21T14:54:16.361Z,4.40
2022-09-21T14:57:17.278Z,4.13
2022-09-21T15:00:02.778Z,4.22
2022-09-21T15:02:32.933Z,4.32
2022-09-21T15:05:08.724Z,4.40
2022-09-21T15:07:35.657Z,4.40
2022-09-21T15:10:19.011Z,4.82
2022-09-21T15:13:06.525Z,4.50
2022-09-21T15:15:36.096Z,4.72
2022-09-21T15:18:13.925Z,4.60
2022-09-21T15:20:40.703Z,4.43
2022-09-21T15:23:19.203Z,4.72
2022-09-21T15:25:57.547Z,4.10
2022-09-21T15:28:26.820Z,4.45
2022-09-21T15:30:58.041Z,4.63
2022-09-21T15:33:25.024Z,4.20
2022-09-21T15:35:51.853Z,4.38
2022-09-21T15:38:32.519Z,4.80
2022-09-21T15:41:03.512Z,4.63
2022-09-21T15:43:33.072Z,4.47
2022-09-21T15:46:05.340Z,4.63
2022-09-21T15:48:38.223Z,4.88
2022-09-21T15:51:14.904Z,4.40
2022-09-21T15:53:46.720Z,4.40
2022-09-21T15:56:25.487Z,5.07
2022-09-21T15:59:03.302Z,4.97
2022-09-21T16:01:30.341Z,5.30
2022-09-21T16:04:06.148Z,5.07
2022-09-21T16:06:41.354Z,5.00
2022-09-21T16:09:44.417Z,5.30
2022-09-21T16:12:29.376Z,5.20
2022-09-21T16:15:04.170Z,4.93
2022-09-21T16:18:13.718Z,5.47
2022-09-21T16:20:42.530Z,4.88
2022-09-21T16:23:22.290Z,5.27
2022-09-21T16:25:58.179Z,5.30
2022-09-21T16:28:29.186Z,4.97
2022-09-21T16:30:57.175Z,5.20
2022-09-21T16:33:48.972Z,5.00
2022-09-21T16:36:21.699Z,4.90
2022-09-21T16:38:50.638Z,5.00
2022-09-21T16:41:17.416Z,4.85
2022-09-21T16:43:44.318Z,4.90
2022-09-21T16:46:11.644Z,5.22
2022-09-21T16:48:38.630Z,5.40
2022-09-21T16:51:16.461Z,5.53
2022-09-21T16:53:43.266Z,5.20
2022-09-21T16:56:13.225Z,5.20
2022-09-21T16:58:40.245Z,5.30
2022-09-21T17:01:10.206Z,5.10
2022-09-21T17:03:37.020Z,5.90
2022-09-21T17:06:04.086Z,5.85
2022-09-21T17:08:30.982Z,6.55
2022-09-21T17:10:57.872Z,5.65
2022-09-21T17:13:24.808Z,6.30
2022-09-21T17:15:51.783Z,5.53
2022-09-21T17:18:18.737Z,5.40
2022-09-21T17:20:45.937Z,5.50
2022-09-21T17:23:12.702Z,5.90
2022-09-21T17:25:39.637Z,5.37
2022-09-21T17:28:22.948Z,5.20
2022-09-21T17:30:59.285Z,4.93
2022-09-21T17:33:26.355Z,5.68
2022-09-21T17:35:53.188Z,5.22
2022-09-21T17:38:20.086Z,5.03
2022-09-21T17:40:47.253Z,5.10
2022-09-21T17:43:14.084Z,5.28
2022-09-21T17:45:53.103Z,5.32
2022-09-21T17:48:22.208Z,4.60
2022-09-21T17:50:50.169Z,5.07
2022-09-21T17:53:17.290Z,4.90
2022-09-21T17:55:51.008Z,4.97
2022-09-21T17:58:39.364Z,4.97
2022-09-21T18:01:07.643Z,4.85
2022-09-21T18:03:36.616Z,5.00
2022-09-21T18:06:04.334Z,4.53
2022-09-21T18:08:33.366Z,4.70
2022-09-21T18:11:24.724Z,5.32
2022-09-21T18:14:13.140Z,4.90
2022-09-21T18:16:52.062Z,4.60
2022-09-21T18:19:30.163Z,5.10
2022-09-21T18:22:09.088Z,5.10
2022-09-21T18:24:36.106Z,5.15
2022-09-21T18:27:03.074Z,4.78
2022-09-21T18:29:42.109Z,4.93
2022-09-21T18:32:34.065Z,4.97
2022-09-21T18:35:15.858Z,5.05
2022-09-21T18:38:00.342Z,4.60
2022-09-21T18:40:47.271Z,5.00
2022-09-21T18:43:33.762Z,4.70
2022-09-21T18:46:04.234Z,5.10
2022-09-21T18:48:39.611Z,4.72
2022-09-21T18:51:48.982Z,4.70
2022-09-21T18:54:25.627Z,5.13
2022-09-21T18:56:52.846Z,5.10
2022-09-21T18:59:19.942Z,4.70
2022-09-21T19:01:47.983Z,4.40
2022-09-21T19:04:15.285Z,4.72
2022-09-21T19:07:11.311Z,4.97
2022-09-21T19:09:41.104Z,5.07
2022-09-21T19:12:35.861Z,5.07
2022-09-21T19:15:42.115Z,4.78
2022-09-21T19:18:16.662Z,5.00
2022-09-21T19:21:05.438Z,4.80
2022-09-21T19:23:44.200Z,5.20
2022-09-21T19:26:11.132Z,4.90
2022-09-21T19:28:59.902Z,4.95
2022-09-21T19:31:26.952Z,5.30
2022-09-21T19:33:53.832Z,4.80
2022-09-21T19:36:21.199Z,5.13
2022-09-21T19:38:48.179Z,5.03
2022-09-21T19:41:36.073Z,4.97
2022-09-21T19:44:13.085Z,5.07
2022-09-21T19:47:28.392Z,5.18
2022-09-21T19:50:03.044Z,5.07
2022-09-21T19:52:34.515Z,5.10
2022-09-21T19:55:02.065Z,4.90
2022-09-21T19:57:29.677Z,4.90
2022-09-21T19:59:56.782Z,4.80
2022-09-21T20:02:30.650Z,5.00
2022-09-21T20:05:08.414Z,5.05
2022-09-21T20:07:49.079Z,4.80
2022-09-21T20:10:21.548Z,4.80
2022-09-21T20:13:05.749Z,5.30
2022-09-21T20:15:46.484Z,4.90
2022-09-21T20:18:39.862Z,4.90
2022-09-21T20:21:15.580Z,5.00
2022-09-21T20:23:42.846Z,4.65
2022-09-21T20:26:24.762Z,4.95
2022-09-21T20:28:52.908Z,4.70
2022-09-21T20:31:24.785Z,5.25
2022-09-21T20:33:52.069Z,5.10
2022-09-21T20:36:18.868Z,4.55
2022-09-21T20:38:45.625Z,4.65
2022-09-21T20:41:13.800Z,4.50
2022-09-21T20:43:40.711Z,4.40
2022-09-21T20:46:10.497Z,4.20
2022-09-21T20:48:38.143Z,4.72
2022-09-21T20:51:05.341Z,4.40
2022-09-21T20:53:35.362Z,3.90
2022-09-21T20:56:02.859Z,3.78
2022-09-21T20:58:30.507Z,3.40
2022-09-21T21:01:04.078Z,3.30
2022-09-21T21:03:30.962Z,3.25
2022-09-21T21:06:14.859Z,3.07
2022-09-21T21:08:41.914Z,2.90
2022-09-21T21:11:08.699Z,3.03
2022-09-21T21:13:35.515Z,3.03
2022-09-21T21:16:02.641Z,3.22
2022-09-21T21:18:29.390Z,3.13
2022-09-21T21:20:56.192Z,3.30
2022-09-21T21:23:22.989Z,3.78
2022-09-21T21:25:49.725Z,3.10
2022-09-21T21:28:16.455Z,3.05
2022-09-21T21:30:43.357Z,3.17
2022-09-21T21:33:10.091Z,2.97
2022-09-21T21:35:36.827Z,2.92
2022-09-21T21:38:03.691Z,2.50
2022-09-21T21:40:30.509Z,2.50
2022-09-21T21:42:57.459Z,2.50
2022-09-21T21:45:24.334Z,2.45
2022-09-21T21:47:51.030Z,2.50
2022-09-21T21:50:17.816Z,2.10
2022-09-21T21:52:44.627Z,2.20
2022-09-21T21:55:11.726Z,2.30
2022-09-21T21:57:38.495Z,2.30
2022-09-21T22:00:07.303Z,2.22
2022-09-21T22:02:34.154Z,2.55
2022-09-21T22:05:01.064Z,2.28
2022-09-21T22:07:27.960Z,2.30
2022-09-21T22:09:54.728Z,2.30
2022-09-21T22:12:21.518Z,2.72
2022-09-21T22:14:48.335Z,2.40
2022-09-21T22:17:15.135Z,2.30
2022-09-21T22:19:41.881Z,2.00
2022-09-21T22:22:08.698Z,2.00
2022-09-21T22:24:35.446Z,1.90
2022-09-21T22:27:02.272Z,1.88
2022-09-21T22:29:29.038Z,2.10
2022-09-21T22:31:55.811Z,2.00
2022-09-21T22:34:22.628Z,1.98
2022-09-21T22:36:49.579Z,2.00
2022-09-21T22:39:16.403Z,2.20
2022-09-21T22:41:43.718Z,2.17
2022-09-21T22:44:11.486Z,1.70
2022-09-21T22:46:39.146Z,1.70
2022-09-21T22:49:06.496Z,2.40
2022-09-21T22:51:34.070Z,1.85
2022-09-21T22:54:00.932Z,1.70
2022-09-21T22:56:30.179Z,1.80
2022-09-21T22:58:59.588Z,1.70
2022-09-21T23:01:29.514Z,1.80
2022-09-21T23:03:58.885Z,1.60
2022-09-21T23:06:28.309Z,1.80
2022-09-21T23:08:57.123Z,1.63
2022-09-21T23:11:28.542Z,1.60
2022-09-21T23:13:56.856Z,1.80
2022-09-21T23:16:25.423Z,1.70
2022-09-21T23:18:52.690Z,1.52
2022-09-21T23:21:22.913Z,1.63
2022-09-21T23:23:50.654Z,1.65
2022-09-21T23:26:20.272Z,1.70
2022-09-21T23:28:55.678Z,1.58
2022-09-21T23:31:23.596Z,1.20
2022-09-21T23:33:52.336Z,1.50
2022-09-21T23:36:22.087Z,1.45
2022-09-21T23:38:50.204Z,1.30
2022-09-21T23:41:19.458Z,1.30
2022-09-21T23:43:47.034Z,1.52
2022-09-21T23:46:19.785Z,1.50
2022-09-21T23:48:47.585Z,1.40
2022-09-21T23:51:14.843Z,1.48
2022-09-21T23:53:42.200Z,1.55
2022-09-21T23:56:13.355Z,1.38
2022-09-21T23:58:40.201Z,1.40
